createdAt,value
2022-11-24T00:01:34.120Z,9.70
2022-11-24T00:04:06.984Z,9.70
2022-11-24T00:09:12.187Z,9.70
2022-11-24T00:11:44.496Z,9.70
2022-11-24T00:14:16.469Z,9.70
2022-11-24T00:16:49.633Z,9.70
2022-11-24T00:19:21.575Z,9.70
2022-11-24T00:21:54.386Z,9.70
2022-11-24T00:24:26.538Z,9.70
2022-11-24T00:26:59.275Z,9.80
2022-11-24T00:29:31.199Z,9.70
2022-11-24T00:32:06.419Z,9.80
2022-11-24T00:34:38.672Z,9.80
2022-11-24T00:37:11.406Z,9.90
2022-11-24T00:39:43.761Z,9.90
2022-11-24T00:42:15.689Z,9.90
2022-11-24T00:47:41.634Z,9.90
2022-11-24T00:50:14.477Z,10.00
2022-11-24T00:52:46.374Z,9.90
2022-11-24T00:55:19.104Z,10.00
2022-11-24T01:05:29.729Z,9.90
2022-11-24T01:10:34.859Z,10.00
2022-11-24T01:13:07.448Z,10.00
2022-11-24T01:15:40.052Z,10.30
2022-11-24T01:18:13.598Z,10.00
2022-11-24T01:25:50.972Z,9.90
2022-11-24T01:31:01.184Z,9.90
2022-11-24T01:33:35.832Z,10.00
2022-11-24T01:36:07.794Z,9.90
2022-11-24T01:41:23.892Z,9.90
2022-11-24T01:43:57.443Z,9.80
2022-11-24T01:46:40.348Z,9.80
2022-11-24T01:49:38.782Z,9.70
2022-11-24T01:52:16.591Z,9.80
2022-11-24T01:55:04.606Z,9.80
2022-11-24T01:57:44.403Z,9.80
2022-11-24T02:00:19.182Z,9.70
2022-11-24T02:02:51.833Z,9.70
2022-11-24T02:05:29.215Z,9.70
2022-11-24T02:08:02.132Z,9.70
2022-11-24T02:10:35.452Z,9.80
2022-11-24T02:13:07.509Z,9.70
2022-11-24T02:15:40.312Z,9.70
2022-11-24T02:18:12.244Z,9.70
2022-11-24T02:20:45.029Z,9.70
2022-11-24T02:23:49.207Z,9.70
2022-11-24T02:26:46.770Z,9.70
2022-11-24T02:29:20.683Z,9.60
2022-11-24T02:32:00.042Z,9.60
2022-11-24T02:34:32.362Z,9.60
2022-11-24T02:39:38.299Z,9.50
2022-11-24T02:42:14.478Z,9.60
2022-11-24T02:44:51.815Z,9.60
2022-11-24T02:49:56.360Z,9.70
2022-11-24T02:52:29.060Z,9.70
2022-11-24T02:55:23.983Z,9.80
2022-11-24T02:57:56.089Z,9.80
2022-11-24T03:00:28.786Z,9.70
2022-11-24T03:03:00.769Z,9.70
2022-11-24T03:05:33.520Z,9.70
2022-11-24T03:08:06.428Z,9.60
2022-11-24T03:10:39.116Z,9.70
2022-11-24T03:13:12.002Z,9.60
2022-11-24T03:15:44.038Z,9.60
2022-11-24T03:18:16.770Z,9.70
2022-11-24T03:28:28.431Z,9.70
2022-11-24T03:31:00.620Z,9.70
2022-11-24T03:36:07.911Z,9.70
2022-11-24T03:38:40.632Z,9.70
2022-11-24T03:41:13.012Z,9.70
2022-11-24T03:43:44.867Z,9.70
2022-11-24T03:48:50.472Z,9.70
2022-11-24T03:56:28.033Z,9.60
2022-11-24T03:59:00.761Z,9.60
2022-11-24T04:01:32.679Z,9.60
2022-11-24T04:04:05.668Z,9.70
2022-11-24T04:06:38.812Z,9.80
2022-11-24T04:09:11.183Z,9.80
2022-11-24T04:12:01.629Z,9.90
2022-11-24T04:14:34.149Z,9.90
2022-11-24T04:17:06.672Z,9.90
2022-11-24T04:19:38.967Z,9.90
2022-11-24T04:22:10.831Z,9.90
2022-11-24T04:27:15.921Z,9.90
2022-11-24T04:29:48.702Z,9.90
2022-11-24T04:32:20.860Z,9.90
2022-11-24T04:34:53.727Z,9.90
2022-11-24T04:37:25.646Z,9.90
2022-11-24T04:39:58.337Z,9.90
2022-11-24T04:42:30.596Z,9.90
2022-11-24T04:53:02.408Z,9.90
2022-11-24T04:58:13.237Z,10.00
2022-11-24T05:00:45.951Z,10.00
2022-11-24T05:03:17.869Z,10.00
2022-11-24T05:05:50.902Z,10.10
2022-11-24T05:10:55.974Z,10.10
2022-11-24T05:13:28.217Z,10.10
2022-11-24T05:16:02.049Z,10.10
2022-11-24T05:21:07.285Z,10.10
2022-11-24T05:23:39.799Z,10.10
2022-11-24T05:26:12.808Z,10.10
2022-11-24T05:28:44.731Z,10.10
2022-11-24T05:31:17.523Z,10.10
2022-11-24T05:41:47.478Z,10.10
2022-11-24T05:44:19.760Z,10.10
2022-11-24T05:46:52.107Z,10.10
2022-11-24T05:49:23.998Z,10.00
2022-11-24T05:51:56.702Z,10.10
2022-11-24T05:54:28.976Z,10.00
2022-11-24T05:57:01.274Z,10.00
2022-11-24T05:59:34.234Z,10.00
2022-11-24T06:02:06.185Z,10.10
2022-11-24T06:04:39.087Z,10.10
2022-11-24T06:07:13.018Z,10.00
2022-11-24T06:15:13.822Z,9.60
2022-11-24T06:17:56.241Z,9.70
2022-11-24T06:20:32.615Z,9.70
2022-11-24T06:25:38.383Z,9.70
2022-11-24T06:28:10.751Z,9.60
2022-11-24T06:30:42.651Z,9.70
2022-11-24T06:33:15.340Z,9.70
2022-11-24T06:35:47.710Z,9.80
2022-11-24T06:41:10.450Z,9.80
2022-11-24T06:43:56.851Z,9.90
2022-11-24T06:46:30.525Z,10.10
2022-11-24T06:49:03.908Z,10.20
2022-11-24T06:51:35.932Z,10.10
2022-11-24T06:54:17.357Z,10.00
2022-11-24T06:56:49.643Z,9.80
2022-11-24T06:59:22.739Z,9.90
2022-11-24T07:01:54.656Z,9.70
2022-11-24T07:04:27.797Z,9.70
2022-11-24T07:12:07.116Z,9.60
2022-11-24T07:14:39.848Z,9.50
2022-11-24T07:17:11.738Z,9.50
2022-11-24T07:19:44.502Z,9.50
2022-11-24T07:22:16.890Z,9.50
2022-11-24T07:29:54.623Z,9.40
2022-11-24T07:32:27.688Z,9.40
2022-11-24T07:34:59.615Z,9.40
2022-11-24T07:37:32.463Z,9.40
2022-11-24T07:40:06.624Z,9.40
2022-11-24T07:42:39.579Z,9.30
2022-11-24T07:45:11.451Z,9.30
2022-11-24T07:47:44.745Z,9.40
2022-11-24T07:50:17.773Z,9.40
2022-11-24T07:52:50.060Z,9.30
2022-11-24T07:55:22.864Z,9.30
2022-11-24T07:57:55.213Z,9.30
2022-11-24T08:03:00.973Z,9.30
2022-11-24T08:05:32.876Z,9.30
2022-11-24T08:08:05.479Z,9.30
2022-11-24T08:10:37.373Z,9.40
2022-11-24T08:13:09.757Z,9.40
2022-11-24T08:15:42.077Z,9.40
2022-11-24T08:18:14.634Z,9.40
2022-11-24T08:23:19.254Z,9.40
2022-11-24T08:25:56.745Z,9.50
2022-11-24T08:28:29.507Z,9.50
2022-11-24T08:31:07.974Z,9.60
2022-11-24T08:36:17.569Z,9.70
2022-11-24T08:38:59.364Z,9.60
2022-11-24T08:41:31.780Z,9.70
2022-11-24T08:44:04.715Z,9.70
2022-11-24T08:46:37.077Z,9.70
2022-11-24T08:51:43.351Z,9.70
2022-11-24T08:54:18.955Z,9.80
2022-11-24T08:56:50.884Z,9.80
2022-11-24T08:59:23.281Z,9.90
2022-11-24T09:01:55.731Z,9.90
2022-11-24T09:04:27.820Z,10.00
2022-11-24T09:07:02.633Z,10.00
2022-11-24T09:09:34.911Z,10.00
2022-11-24T09:12:14.265Z,10.20
2022-11-24T09:14:46.708Z,10.30
2022-11-24T09:17:19.388Z,10.40
2022-11-24T09:19:51.241Z,10.30
2022-11-24T09:22:23.945Z,10.40
2022-11-24T09:24:56.224Z,10.50
2022-11-24T09:27:28.122Z,10.50
2022-11-24T09:30:00.867Z,10.40
2022-11-24T09:32:33.066Z,10.40
2022-11-24T09:35:06.262Z,10.30
2022-11-24T09:37:38.955Z,10.40
2022-11-24T09:40:14.656Z,10.40
2022-11-24T09:43:11.993Z,10.40
2022-11-24T09:46:05.432Z,10.40
2022-11-24T09:48:41.998Z,10.50
2022-11-24T09:51:16.114Z,10.60
2022-11-24T09:54:06.912Z,11.00
2022-11-24T09:56:42.255Z,11.10
2022-11-24T09:59:23.582Z,11.00
2022-11-24T10:04:43.168Z,10.90
2022-11-24T10:07:45.621Z,10.90
2022-11-24T10:10:34.912Z,11.10
2022-11-24T10:14:39.156Z,11.70
2022-11-24T10:17:40.809Z,11.80
2022-11-24T10:20:36.681Z,11.40
2022-11-24T10:23:39.608Z,11.90
2022-11-24T10:26:36.984Z,12.40
2022-11-24T10:29:42.800Z,12.20
2022-11-24T10:32:20.593Z,12.80
2022-11-24T10:34:54.595Z,13.30
2022-11-24T10:37:55.433Z,13.00
2022-11-24T10:40:59.472Z,13.10
2022-11-24T10:46:28.806Z,13.30
2022-11-24T10:49:04.791Z,13.10
2022-11-24T10:52:13.528Z,13.40
2022-11-24T10:55:02.233Z,13.30
2022-11-24T10:57:37.934Z,13.70
2022-11-24T11:00:21.828Z,14.30
2022-11-24T11:03:23.971Z,14.00
2022-11-24T11:06:27.758Z,13.60
2022-11-24T11:09:08.781Z,13.80
2022-11-24T11:11:42.530Z,13.70
2022-11-24T11:14:35.522Z,13.90
2022-11-24T11:17:36.264Z,14.00
2022-11-24T11:20:33.435Z,14.30
2022-11-24T11:23:23.109Z,14.90
2022-11-24T11:26:19.316Z,14.80
2022-11-24T11:35:21.367Z,13.60
2022-11-24T11:38:04.555Z,14.00
2022-11-24T11:40:37.014Z,13.80
2022-11-24T11:43:26.168Z,13.70
2022-11-24T11:46:18.475Z,13.30
2022-11-24T11:48:51.372Z,13.60
2022-11-24T11:51:42.626Z,13.30
2022-11-24T11:54:52.461Z,13.00
2022-11-24T11:57:39.483Z,13.10
2022-11-24T12:00:19.651Z,13.40
2022-11-24T12:03:24.447Z,13.70
2022-11-24T12:06:25.376Z,14.10
2022-11-24T12:09:41.764Z,13.40
2022-11-24T12:12:50.761Z,12.70
2022-11-24T12:15:42.286Z,13.30
2022-11-24T12:21:26.696Z,13.70
2022-11-24T12:24:19.595Z,13.50
2022-11-24T12:26:58.214Z,13.10
2022-11-24T12:29:57.660Z,12.90
2022-11-24T12:33:22.041Z,13.20
2022-11-24T12:36:07.083Z,13.10
2022-11-24T12:39:25.110Z,13.00
2022-11-24T12:42:14.063Z,13.20
2022-11-24T12:45:13.406Z,13.10
2022-11-24T12:48:13.978Z,13.20
2022-11-24T12:50:47.059Z,13.30
2022-11-24T12:53:29.104Z,13.40
2022-11-24T12:56:15.760Z,13.60
2022-11-24T12:59:16.403Z,13.30
2022-11-24T13:02:15.602Z,13.20
2022-11-24T13:05:33.850Z,15.00
2022-11-24T13:08:06.869Z,12.80
2022-11-24T13:10:55.301Z,12.80
2022-11-24T13:14:02.106Z,12.70
2022-11-24T13:16:41.017Z,12.60
2022-11-24T13:19:28.783Z,12.60
2022-11-24T13:22:07.824Z,12.70
2022-11-24T13:24:41.040Z,12.70
2022-11-24T13:27:16.435Z,12.60
2022-11-24T13:29:51.169Z,12.50
2022-11-24T13:32:22.988Z,12.50
2022-11-24T13:40:11.898Z,12.40
2022-11-24T13:42:56.353Z,12.40
2022-11-24T13:45:41.956Z,12.50
2022-11-24T13:48:20.646Z,12.50
2022-11-24T13:53:42.498Z,12.50
2022-11-24T13:56:17.708Z,12.40
2022-11-24T13:58:54.404Z,12.50
2022-11-24T14:01:31.677Z,12.50
2022-11-24T14:04:31.871Z,12.60
2022-11-24T14:07:16.029Z,12.70
2022-11-24T14:09:51.184Z,12.70
2022-11-24T14:12:28.274Z,12.70
2022-11-24T14:15:25.888Z,12.50
2022-11-24T14:17:58.820Z,12.30
2022-11-24T14:20:30.787Z,12.20
2022-11-24T14:25:36.770Z,12.00
2022-11-24T14:28:26.508Z,11.90
2022-11-24T14:31:22.520Z,11.90
2022-11-24T14:34:16.300Z,11.90
2022-11-24T14:36:49.959Z,11.80
2022-11-24T14:39:25.207Z,11.80
2022-11-24T14:42:23.002Z,11.80
2022-11-24T14:45:03.880Z,11.80
2022-11-24T14:47:45.386Z,11.90
2022-11-24T14:50:21.438Z,11.90
2022-11-24T14:52:57.234Z,11.90
2022-11-24T14:55:39.111Z,11.90
2022-11-24T14:58:40.522Z,11.90
2022-11-24T15:01:29.559Z,11.80
2022-11-24T15:07:25.897Z,11.70
2022-11-24T15:10:02.285Z,11.70
2022-11-24T15:12:42.754Z,11.60
2022-11-24T15:15:15.572Z,11.50
2022-11-24T15:17:58.404Z,11.50
2022-11-24T15:20:43.611Z,11.50
2022-11-24T15:23:30.765Z,11.40
2022-11-24T15:28:36.233Z,11.30
2022-11-24T15:31:14.271Z,11.20
2022-11-24T15:36:20.882Z,10.90
2022-11-24T15:38:52.752Z,10.60
2022-11-24T15:41:34.743Z,10.50
2022-11-24T15:49:13.864Z,10.20
2022-11-24T15:51:47.555Z,10.50
2022-11-24T15:54:19.646Z,10.30
2022-11-24T15:59:24.801Z,10.10
2022-11-24T16:01:57.117Z,10.00
2022-11-24T16:04:29.016Z,9.90
2022-11-24T16:07:04.228Z,9.80
2022-11-24T16:12:10.066Z,9.70
2022-11-24T16:19:50.569Z,9.50
2022-11-24T16:27:39.502Z,9.20
2022-11-24T16:30:13.563Z,9.10
2022-11-24T16:35:18.725Z,9.00
2022-11-24T16:37:51.519Z,8.90
2022-11-24T16:42:58.242Z,8.90
2022-11-24T16:45:31.010Z,8.80
2022-11-24T16:48:03.344Z,8.70
2022-11-24T16:50:37.782Z,8.70
2022-11-24T16:53:10.147Z,8.60
2022-11-24T16:55:42.488Z,8.60
2022-11-24T17:00:47.577Z,8.60
2022-11-24T17:05:59.987Z,8.50
2022-11-24T17:08:34.856Z,8.40
2022-11-24T17:11:13.597Z,8.40
2022-11-24T17:13:47.089Z,8.40
2022-11-24T17:16:23.285Z,8.30
2022-11-24T17:21:29.377Z,8.10
2022-11-24T17:24:06.967Z,8.00
2022-11-24T17:31:46.244Z,8.00
2022-11-24T17:34:18.758Z,8.00
2022-11-24T17:36:51.515Z,8.00
2022-11-24T17:39:25.184Z,7.90
2022-11-24T17:41:57.953Z,7.90
2022-11-24T17:44:29.983Z,7.80
2022-11-24T17:47:02.764Z,7.80
2022-11-24T17:49:34.637Z,7.90
2022-11-24T17:52:10.573Z,7.90
2022-11-24T17:57:20.563Z,7.80
2022-11-24T17:59:53.839Z,7.70
2022-11-24T18:07:31.572Z,7.50
2022-11-24T18:10:05.324Z,7.60
2022-11-24T18:12:37.785Z,7.60
2022-11-24T18:15:10.237Z,7.70
2022-11-24T18:17:42.973Z,7.60
2022-11-24T18:23:04.939Z,7.50
2022-11-24T18:25:38.540Z,7.50
2022-11-24T18:28:11.247Z,7.40
2022-11-24T18:30:43.116Z,7.50
2022-11-24T18:33:17.016Z,7.40
2022-11-24T18:36:00.246Z,7.30
2022-11-24T18:49:09.857Z,7.30
2022-11-24T18:51:42.247Z,7.30
2022-11-24T19:01:52.829Z,7.30
2022-11-24T19:06:58.768Z,7.10
2022-11-24T19:12:04.220Z,7.10
2022-11-24T19:14:36.496Z,7.00
2022-11-24T19:17:09.172Z,7.00
2022-11-24T19:19:41.050Z,7.00
2022-11-24T19:22:17.481Z,6.90
2022-11-24T19:24:50.746Z,6.80
2022-11-24T19:27:25.805Z,6.90
2022-11-24T19:29:57.703Z,6.90
2022-11-24T19:32:32.746Z,6.90
2022-11-24T19:35:05.259Z,6.80
2022-11-24T19:55:27.025Z,7.10
2022-11-24T20:03:05.789Z,6.60
2022-11-24T20:08:10.249Z,6.50
2022-11-24T20:15:46.740Z,6.50
2022-11-24T20:20:50.862Z,6.40
2022-11-24T20:23:23.386Z,6.40
2022-11-24T20:28:28.707Z,6.40
2022-11-24T20:31:17.124Z,6.40
2022-11-24T20:33:50.136Z,6.40
2022-11-24T20:36:26.560Z,6.40
2022-11-24T20:39:05.699Z,6.30
2022-11-24T20:41:39.946Z,6.30
2022-11-24T20:44:17.208Z,6.60
2022-11-24T20:46:50.695Z,6.40
2022-11-24T20:51:57.501Z,6.30
2022-11-24T20:54:29.820Z,6.20
2022-11-24T20:57:02.356Z,6.10
2022-11-24T21:02:07.444Z,6.00
2022-11-24T21:07:13.898Z,6.00
2022-11-24T21:09:45.857Z,6.10
2022-11-24T21:12:18.383Z,6.00
2022-11-24T21:20:00.788Z,6.00
2022-11-24T21:22:33.654Z,6.00
2022-11-24T21:25:06.135Z,6.00
2022-11-24T21:30:11.769Z,5.90
2022-11-24T21:32:45.392Z,5.90
2022-11-24T21:35:17.449Z,5.90
2022-11-24T21:40:22.188Z,5.90
2022-11-24T21:45:29.075Z,6.00
2022-11-24T21:48:01.702Z,6.00
2022-11-24T21:50:33.547Z,6.00
2022-11-24T21:55:38.360Z,6.00
2022-11-24T22:00:43.281Z,6.00
2022-11-24T22:03:16.138Z,6.00
2022-11-24T22:05:55.929Z,5.90
2022-11-24T22:08:30.111Z,5.80
2022-11-24T22:11:23.774Z,5.90
2022-11-24T22:13:55.996Z,5.80
2022-11-24T22:16:28.347Z,5.80
2022-11-24T22:19:00.916Z,5.80
2022-11-24T22:21:36.098Z,5.80
2022-11-24T22:24:08.528Z,5.90
2022-11-24T22:26:41.088Z,5.80
2022-11-24T22:29:12.970Z,5.90
2022-11-24T22:31:45.552Z,5.90
2022-11-24T22:36:50.057Z,5.90
2022-11-24T22:39:21.894Z,5.90
2022-11-24T22:41:54.754Z,5.90
2022-11-24T22:44:26.674Z,5.90
2022-11-24T22:47:00.280Z,6.00
2022-11-24T22:49:32.234Z,5.90
2022-11-24T22:52:04.879Z,5.90
2022-11-24T23:04:47.849Z,6.00
2022-11-24T23:07:20.473Z,6.00
2022-11-24T23:09:52.383Z,6.00
2022-11-24T23:12:24.984Z,6.00
2022-11-24T23:14:56.876Z,6.00
2022-11-24T23:17:29.386Z,6.00
2022-11-24T23:20:01.256Z,6.00
2022-11-24T23:22:33.798Z,6.00
2022-11-24T23:25:06.013Z,6.00
2022-11-24T23:30:11.017Z,6.10
2022-11-24T23:32:43.602Z,6.00
2022-11-24T23:35:15.619Z,6.10
2022-11-24T23:38:07.118Z,6.20
2022-11-24T23:40:40.440Z,6.20
2022-11-24T23:43:13.558Z,6.10
2022-11-24T23:46:10.209Z,6.10
2022-11-24T23:48:42.635Z,6.10
2022-11-24T23:51:18.738Z,6.10
2022-11-24T23:53:51.665Z,6.10
2022-11-24T23:56:28.033Z,6.20
2022-11-24T23:59:01.623Z,6.20
